sensor_id;sensor_type;location;lat;lon;timestamp;pressure;altitude;pressure_sealevel;temperature;humidity
56992;BME280;42885;49.754;18.636;2023-04-25T00:01:43;97286.22;;;13.74;100.00
56992;BME280;42885;49.754;18.636;2023-04-25T00:04:14;97280.00;;;13.85;100.00
56992;BME280;42885;49.754;18.636;2023-04-25T00:06:45;97276.47;;;13.80;100.00
56992;BME280;42885;49.754;18.636;2023-04-25T00:09:16;97278.56;;;13.86;100.00
56992;BME280;42885;49.754;18.636;2023-04-25T00:11:47;97280.67;;;13.77;100.00
56992;BME280;42885;49.754;18.636;2023-04-25T00:14:18;97283.79;;;13.67;100.00
56992;BME280;42885;49.754;18.636;2023-04-25T00:16:50;97284.44;;;13.74;100.00
56992;BME280;42885;49.754;18.636;2023-04-25T00:19:21;97283.52;;;13.60;100.00
56992;BME280;42885;49.754;18.636;2023-04-25T00:21:52;97293.78;;;13.32;100.00
56992;BME280;42885;49.754;18.636;2023-04-25T00:24:23;97292.16;;;13.41;100.00
56992;BME280;42885;49.754;18.636;2023-04-25T00:26:54;97292.44;;;13.38;100.00
56992;BME280;42885;49.754;18.636;2023-04-25T00:29:25;97289.73;;;13.18;100.00
56992;BME280;42885;49.754;18.636;2023-04-25T00:31:56;97290.20;;;13.07;100.00
56992;BME280;42885;49.754;18.636;2023-04-25T00:34:27;97293.78;;;13.32;100.00
56992;BME280;42885;49.754;18.636;2023-04-25T00:36:58;97288.36;;;13.14;100.00
56992;BME280;42885;49.754;18.636;2023-04-25T00:39:31;97295.84;;;13.03;100.00
56992;BME280;42885;49.754;18.636;2023-04-25T00:42:03;97290.31;;;13.82;100.00
56992;BME280;42885;49.754;18.636;2023-04-25T00:44:34;97300.26;;;13.43;100.00
56992;BME280;42885;49.754;18.636;2023-04-25T00:47:06;97294.97;;;13.33;100.00
56992;BME280;42885;49.754;18.636;2023-04-25T00:49:37;97302.63;;;13.31;100.00
56992;BME280;42885;49.754;18.636;2023-04-25T00:52:08;97302.38;;;13.34;100.00
56992;BME280;42885;49.754;18.636;2023-04-25T00:54:40;97302.54;;;13.58;100.00
56992;BME280;42885;49.754;18.636;2023-04-25T00:57:11;97302.69;;;13.66;100.00
56992;BME280;42885;49.754;18.636;2023-04-25T00:59:44;97305.80;;;13.66;100.00
56992;BME280;42885;49.754;18.636;2023-04-25T01:02:17;97305.58;;;13.63;100.00
56992;BME280;42885;49.754;18.636;2023-04-25T01:04:49;97308.67;;;13.53;100.00
56992;BME280;42885;49.754;18.636;2023-04-25T01:07:20;97308.70;;;13.72;100.00
56992;BME280;42885;49.754;18.636;2023-04-25T01:09:52;97309.33;;;13.90;100.00
56992;BME280;42885;49.754;18.636;2023-04-25T01:12:23;97311.33;;;13.72;100.00
56992;BME280;42885;49.754;18.636;2023-04-25T01:14:55;97316.78;;;13.65;100.00
56992;BME280;42885;49.754;18.636;2023-04-25T01:17:26;97314.34;;;13.48;100.00
56992;BME280;42885;49.754;18.636;2023-04-25T01:19:57;97317.34;;;13.59;100.00
56992;BME280;42885;49.754;18.636;2023-04-25T01:22:28;97316.44;;;13.54;100.00
56992;BME280;42885;49.754;18.636;2023-04-25T01:25:00;97317.59;;;13.56;100.00
56992;BME280;42885;49.754;18.636;2023-04-25T01:27:32;97317.66;;;13.50;100.00
56992;BME280;42885;49.754;18.636;2023-04-25T01:30:06;97322.10;;;13.49;100.00
56992;BME280;42885;49.754;18.636;2023-04-25T01:32:37;97325.87;;;13.35;100.00
56992;BME280;42885;49.754;18.636;2023-04-25T01:35:11;97325.13;;;13.45;100.00
56992;BME280;42885;49.754;18.636;2023-04-25T01:37:44;97327.85;;;13.43;100.00
56992;BME280;42885;49.754;18.636;2023-04-25T01:40:15;97332.05;;;13.56;100.00
56992;BME280;42885;49.754;18.636;2023-04-25T01:42:48;97324.53;;;13.41;100.00
56992;BME280;42885;49.754;18.636;2023-04-25T01:45:19;97327.94;;;13.32;100.00
56992;BME280;42885;49.754;18.636;2023-04-25T01:47:51;97331.92;;;13.42;100.00
56992;BME280;42885;49.754;18.636;2023-04-25T01:50:21;97328.16;;;13.34;100.00
56992;BME280;42885;49.754;18.636;2023-04-25T01:52:53;97336.36;;;13.41;100.00
56992;BME280;42885;49.754;18.636;2023-04-25T01:55:24;97333.64;;;13.37;100.00
56992;BME280;42885;49.754;18.636;2023-04-25T01:58:03;97334.97;;;13.21;100.00
56992;BME280;42885;49.754;18.636;2023-04-25T02:00:37;97336.80;;;13.15;100.00
56992;BME280;42885;49.754;18.636;2023-04-25T02:03:08;97331.20;;;13.14;100.00
56992;BME280;42885;49.754;18.636;2023-04-25T02:05:40;97341.69;;;13.04;100.00
56992;BME280;42885;49.754;18.636;2023-04-25T02:08:12;97348.06;;;12.80;100.00
56992;BME280;42885;49.754;18.636;2023-04-25T02:10:43;97342.66;;;12.82;100.00
56992;BME280;42885;49.754;18.636;2023-04-25T02:13:23;97354.02;;;12.98;100.00
56992;BME280;42885;49.754;18.636;2023-04-25T02:16:01;97347.58;;;12.97;100.00
56992;BME280;42885;49.754;18.636;2023-04-25T02:18:33;97354.67;;;12.75;100.00
56992;BME280;42885;49.754;18.636;2023-04-25T02:21:05;97358.23;;;12.74;100.00
56992;BME280;42885;49.754;18.636;2023-04-25T02:23:36;97351.27;;;12.84;100.00
56992;BME280;42885;49.754;18.636;2023-04-25T02:26:08;97350.77;;;12.85;100.00
56992;BME280;42885;49.754;18.636;2023-04-25T02:28:40;97356.06;;;12.79;100.00
56992;BME280;42885;49.754;18.636;2023-04-25T02:31:11;97354.67;;;12.75;100.00
56992;BME280;42885;49.754;18.636;2023-04-25T02:33:43;97350.52;;;12.88;100.00
56992;BME280;42885;49.754;18.636;2023-04-25T02:36:13;97356.34;;;12.91;100.00
56992;BME280;42885;49.754;18.636;2023-04-25T02:38:44;97356.09;;;12.73;100.00
56992;BME280;42885;49.754;18.636;2023-04-25T02:41:15;97358.72;;;12.73;100.00
56992;BME280;42885;49.754;18.636;2023-04-25T02:43:46;97351.73;;;12.84;100.00
56992;BME280;42885;49.754;18.636;2023-04-25T02:46:17;97351.66;;;12.79;100.00
56992;BME280;42885;49.754;18.636;2023-04-25T02:48:49;97354.93;;;12.87;100.00
56992;BME280;42885;49.754;18.636;2023-04-25T02:51:20;97359.23;;;12.67;100.00
56992;BME280;42885;49.754;18.636;2023-04-25T02:53:50;97364.70;;;12.91;100.00
56992;BME280;42885;49.754;18.636;2023-04-25T02:56:21;97356.24;;;12.87;100.00
56992;BME280;42885;49.754;18.636;2023-04-25T02:58:53;97354.59;;;13.02;100.00
56992;BME280;42885;49.754;18.636;2023-04-25T03:01:24;97353.84;;;12.90;100.00
56992;BME280;42885;49.754;18.636;2023-04-25T03:03:55;97357.68;;;12.70;100.00
56992;BME280;42885;49.754;18.636;2023-04-25T03:06:26;97347.16;;;12.91;100.00
56992;BME280;42885;49.754;18.636;2023-04-25T03:08:57;97353.17;;;12.98;100.00
56992;BME280;42885;49.754;18.636;2023-04-25T03:11:28;97348.36;;;12.87;100.00
56992;BME280;42885;49.754;18.636;2023-04-25T03:13:58;97348.84;;;12.71;100.00
56992;BME280;42885;49.754;18.636;2023-04-25T03:16:29;97355.60;;;12.58;100.00
56992;BME280;42885;49.754;18.636;2023-04-25T03:19:00;97351.66;;;12.74;100.00
56992;BME280;42885;49.754;18.636;2023-04-25T03:21:32;97357.48;;;12.77;100.00
56992;BME280;42885;49.754;18.636;2023-04-25T03:24:04;97350.24;;;12.54;100.00
56992;BME280;42885;49.754;18.636;2023-04-25T03:26:35;97352.55;;;12.47;100.00
56992;BME280;42885;49.754;18.636;2023-04-25T03:29:06;97354.75;;;12.36;100.00
56992;BME280;42885;49.754;18.636;2023-04-25T03:31:37;97361.00;;;12.51;100.00
56992;BME280;42885;49.754;18.636;2023-04-25T03:34:08;97362.73;;;12.35;100.00
56992;BME280;42885;49.754;18.636;2023-04-25T03:36:39;97366.29;;;12.45;100.00
56992;BME280;42885;49.754;18.636;2023-04-25T03:39:10;97365.02;;;12.34;100.00
56992;BME280;42885;49.754;18.636;2023-04-25T03:41:42;97359.53;;;12.31;100.00
56992;BME280;42885;49.754;18.636;2023-04-25T03:44:14;97363.03;;;12.26;100.00
56992;BME280;42885;49.754;18.636;2023-04-25T03:46:46;97367.60;;;12.39;100.00
56992;BME280;42885;49.754;18.636;2023-04-25T03:49:17;97365.39;;;12.29;100.00
56992;BME280;42885;49.754;18.636;2023-04-25T03:51:55;97370.91;;;12.26;100.00
56992;BME280;42885;49.754;18.636;2023-04-25T03:54:26;97366.64;;;12.14;100.00
56992;BME280;42885;49.754;18.636;2023-04-25T03:56:59;97364.63;;;12.38;100.00
56992;BME280;42885;49.754;18.636;2023-04-25T03:59:30;97369.56;;;12.32;100.00
56992;BME280;42885;49.754;18.636;2023-04-25T04:02:01;97370.38;;;12.32;100.00
56992;BME280;42885;49.754;18.636;2023-04-25T04:04:33;97373.43;;;12.43;100.00
56992;BME280;42885;49.754;18.636;2023-04-25T04:07:04;97374.02;;;12.47;100.00
56992;BME280;42885;49.754;18.636;2023-04-25T04:09:36;97375.04;;;12.34;100.00
56992;BME280;42885;49.754;18.636;2023-04-25T04:12:09;97380.72;;;12.45;100.00
56992;BME280;42885;49.754;18.636;2023-04-25T04:14:41;97375.95;;;12.66;100.00
56992;BME280;42885;49.754;18.636;2023-04-25T04:17:12;97384.80;;;12.32;100.00
56992;BME280;42885;49.754;18.636;2023-04-25T04:19:43;97381.56;;;12.40;100.00
56992;BME280;42885;49.754;18.636;2023-04-25T04:22:16;97379.49;;;12.49;100.00
56992;BME280;42885;49.754;18.636;2023-04-25T04:24:48;97379.17;;;12.43;100.00
56992;BME280;42885;49.754;18.636;2023-04-25T04:27:21;97378.42;;;12.25;100.00
56992;BME280;42885;49.754;18.636;2023-04-25T04:29:57;97390.05;;;12.32;100.00
56992;BME280;42885;49.754;18.636;2023-04-25T04:32:47;97392.35;;;12.25;100.00
56992;BME280;42885;49.754;18.636;2023-04-25T04:35:36;97391.95;;;12.42;100.00
56992;BME280;42885;49.754;18.636;2023-04-25T04:38:26;97392.67;;;12.32;100.00
56992;BME280;42885;49.754;18.636;2023-04-25T04:41:17;97381.75;;;12.27;100.00
56992;BME280;42885;49.754;18.636;2023-04-25T04:44:11;97384.19;;;12.40;100.00
56992;BME280;42885;49.754;18.636;2023-04-25T04:47:06;97382.88;;;12.40;100.00
56992;BME280;42885;49.754;18.636;2023-04-25T04:49:57;97387.83;;;12.49;100.00
56992;BME280;42885;49.754;18.636;2023-04-25T04:52:53;97382.70;;;12.53;100.00
56992;BME280;42885;49.754;18.636;2023-04-25T04:56:00;97385.89;;;12.35;100.00
56992;BME280;42885;49.754;18.636;2023-04-25T04:59:08;97384.66;;;12.45;100.00
56992;BME280;42885;49.754;18.636;2023-04-25T05:01:59;97387.83;;;12.22;100.00
56992;BME280;42885;49.754;18.636;2023-04-25T05:04:49;97388.51;;;12.35;100.00
56992;BME280;42885;49.754;18.636;2023-04-25T05:07:46;97388.51;;;12.35;100.00
56992;BME280;42885;49.754;18.636;2023-04-25T05:10:40;97384.92;;;12.36;100.00
56992;BME280;42885;49.754;18.636;2023-04-25T05:13:34;97386.52;;;12.49;100.00
56992;BME280;42885;49.754;18.636;2023-04-25T05:16:24;97395.55;;;12.62;100.00
56992;BME280;42885;49.754;18.636;2023-04-25T05:19:15;97391.77;;;12.55;100.00
56992;BME280;42885;49.754;18.636;2023-04-25T05:22:15;97391.84;;;12.59;100.00
56992;BME280;42885;49.754;18.636;2023-04-25T05:25:23;97386.09;;;12.65;100.00
56992;BME280;42885;49.754;18.636;2023-04-25T05:28:14;97385.70;;;12.48;100.00
56992;BME280;42885;49.754;18.636;2023-04-25T05:31:17;97391.77;;;12.49;100.00
56992;BME280;42885;49.754;18.636;2023-04-25T05:34:07;97389.70;;;12.37;100.00
56992;BME280;42885;49.754;18.636;2023-04-25T05:36:57;97384.31;;;12.38;100.00
56992;BME280;42885;49.754;18.636;2023-04-25T05:39:47;97389.30;;;12.69;100.00
56992;BME280;42885;49.754;18.636;2023-04-25T05:42:37;97388.56;;;12.51;100.00
56992;BME280;42885;49.754;18.636;2023-04-25T05:45:27;97384.61;;;12.93;100.00
56992;BME280;42885;49.754;18.636;2023-04-25T05:48:20;97387.37;;;12.71;100.00
56992;BME280;42885;49.754;18.636;2023-04-25T05:51:11;97389.41;;;12.46;100.00
56992;BME280;42885;49.754;18.636;2023-04-25T05:54:18;97391.12;;;12.35;100.00
56992;BME280;42885;49.754;18.636;2023-04-25T05:57:08;97395.23;;;12.49;100.00
56992;BME280;42885;49.754;18.636;2023-04-25T05:59:58;97390.54;;;12.80;100.00
56992;BME280;42885;49.754;18.636;2023-04-25T06:02:49;97395.88;;;13.05;100.00
56992;BME280;42885;49.754;18.636;2023-04-25T06:05:39;97397.03;;;13.13;100.00
56992;BME280;42885;49.754;18.636;2023-04-25T06:08:28;97402.77;;;12.70;100.00
56992;BME280;42885;49.754;18.636;2023-04-25T06:11:18;97402.16;;;12.72;100.00
56992;BME280;42885;49.754;18.636;2023-04-25T06:14:08;97398.37;;;13.22;100.00
56992;BME280;42885;49.754;18.636;2023-04-25T06:17:00;97402.28;;;13.13;100.00
56992;BME280;42885;49.754;18.636;2023-04-25T06:19:57;97400.10;;;12.97;100.00
56992;BME280;42885;49.754;18.636;2023-04-25T06:22:41;97397.55;;;13.38;100.00
56992;BME280;42885;49.754;18.636;2023-04-25T06:25:36;97389.27;;;13.42;100.00
56992;BME280;42885;49.754;18.636;2023-04-25T06:28:21;97390.48;;;13.38;100.00
56992;BME280;42885;49.754;18.636;2023-04-25T06:31:11;97395.22;;;13.44;100.00
56992;BME280;42885;49.754;18.636;2023-04-25T06:34:00;97396.62;;;13.64;100.00
56992;BME280;42885;49.754;18.636;2023-04-25T06:36:50;97394.13;;;13.78;100.00
56992;BME280;42885;49.754;18.636;2023-04-25T06:39:41;97392.39;;;13.57;100.00
56992;BME280;42885;49.754;18.636;2023-04-25T06:42:31;97389.70;;;13.88;100.00
56992;BME280;42885;49.754;18.636;2023-04-25T06:45:21;97390.73;;;13.92;100.00
56992;BME280;42885;49.754;18.636;2023-04-25T06:48:11;97388.13;;;14.01;100.00
56992;BME280;42885;49.754;18.636;2023-04-25T06:51:00;97395.28;;;13.80;100.00
56992;BME280;42885;49.754;18.636;2023-04-25T06:53:50;97386.20;;;14.33;100.00
56992;BME280;42885;49.754;18.636;2023-04-25T06:56:40;97389.05;;;14.36;100.00
56992;BME280;42885;49.754;18.636;2023-04-25T06:59:31;97387.02;;;14.14;98.26
56992;BME280;42885;49.754;18.636;2023-04-25T07:02:20;97388.97;;;14.31;94.40
56992;BME280;42885;49.754;18.636;2023-04-25T07:05:10;97390.02;;;14.35;92.91
56992;BME280;42885;49.754;18.636;2023-04-25T07:07:59;97390.91;;;14.10;91.26
56992;BME280;42885;49.754;18.636;2023-04-25T07:10:48;97382.95;;;14.15;92.27
56992;BME280;42885;49.754;18.636;2023-04-25T07:13:38;97384.19;;;14.21;91.42
56992;BME280;42885;49.754;18.636;2023-04-25T07:16:29;97380.69;;;14.36;92.36
56992;BME280;42885;49.754;18.636;2023-04-25T07:19:19;97382.27;;;14.43;95.71
56992;BME280;42885;49.754;18.636;2023-04-25T07:22:09;97383.84;;;14.40;97.91
56992;BME280;42885;49.754;18.636;2023-04-25T07:25:00;97383.64;;;14.47;94.21
56992;BME280;42885;49.754;18.636;2023-04-25T07:27:50;97373.17;;;14.81;91.15
56992;BME280;42885;49.754;18.636;2023-04-25T07:30:42;97380.13;;;14.96;88.86
56992;BME280;42885;49.754;18.636;2023-04-25T07:33:33;97386.33;;;14.91;83.29
56992;BME280;42885;49.754;18.636;2023-04-25T07:36:23;97381.63;;;14.84;80.52
56992;BME280;42885;49.754;18.636;2023-04-25T07:39:12;97385.93;;;14.66;81.08
56992;BME280;42885;49.754;18.636;2023-04-25T07:42:03;97380.53;;;14.57;79.42
56992;BME280;42885;49.754;18.636;2023-04-25T07:44:55;97379.68;;;15.10;77.26
56992;BME280;42885;49.754;18.636;2023-04-25T07:47:44;97377.27;;;15.27;77.88
56992;BME280;42885;49.754;18.636;2023-04-25T07:50:33;97372.91;;;14.98;76.43
56992;BME280;42885;49.754;18.636;2023-04-25T07:53:22;97367.50;;;15.51;76.78
56992;BME280;42885;49.754;18.636;2023-04-25T07:56:12;97369.39;;;15.31;72.78
56992;BME280;42885;49.754;18.636;2023-04-25T07:59:03;97368.72;;;15.43;72.65
56992;BME280;42885;49.754;18.636;2023-04-25T08:01:53;97376.06;;;15.11;71.90
56992;BME280;42885;49.754;18.636;2023-04-25T08:04:46;97371.95;;;14.75;73.81
56992;BME280;42885;49.754;18.636;2023-04-25T08:07:38;97377.20;;;14.75;78.38
56992;BME280;42885;49.754;18.636;2023-04-25T08:10:28;97373.55;;;14.96;76.23
56992;BME280;42885;49.754;18.636;2023-04-25T08:13:17;97373.22;;;14.85;76.52
56992;BME280;42885;49.754;18.636;2023-04-25T08:16:06;97370.00;;;15.01;76.26
56992;BME280;42885;49.754;18.636;2023-04-25T08:18:55;97374.41;;;14.86;74.83
56992;BME280;42885;49.754;18.636;2023-04-25T08:21:45;97372.23;;;15.20;71.87
56992;BME280;42885;49.754;18.636;2023-04-25T08:24:35;97369.61;;;15.10;68.69
56992;BME280;42885;49.754;18.636;2023-04-25T08:27:24;97369.87;;;15.40;67.38
56992;BME280;42885;49.754;18.636;2023-04-25T08:30:13;97365.84;;;15.64;64.15
56992;BME280;42885;49.754;18.636;2023-04-25T08:33:03;97371.08;;;15.60;63.64
56992;BME280;42885;49.754;18.636;2023-04-25T08:35:53;97364.90;;;15.83;59.73
56992;BME280;42885;49.754;18.636;2023-04-25T08:38:43;97362.86;;;15.63;57.59
56992;BME280;42885;49.754;18.636;2023-04-25T08:41:33;97366.55;;;16.13;58.53
56992;BME280;42885;49.754;18.636;2023-04-25T08:44:22;97365.64;;;15.48;59.29
56992;BME280;42885;49.754;18.636;2023-04-25T08:47:12;97369.39;;;16.01;59.70
56992;BME280;42885;49.754;18.636;2023-04-25T08:50:09;97368.23;;;16.36;57.93
56992;BME280;42885;49.754;18.636;2023-04-25T08:53:00;97371.86;;;16.17;58.99
56992;BME280;42885;49.754;18.636;2023-04-25T08:55:50;97370.41;;;16.22;57.50
56992;BME280;42885;49.754;18.636;2023-04-25T08:58:41;97371.92;;;16.61;55.73
56992;BME280;42885;49.754;18.636;2023-04-25T09:01:30;97378.41;;;16.31;56.47
56992;BME280;42885;49.754;18.636;2023-04-25T09:04:19;97365.66;;;16.44;56.02
56992;BME280;42885;49.754;18.636;2023-04-25T09:07:10;97370.92;;;16.40;55.20
56992;BME280;42885;49.754;18.636;2023-04-25T09:09:59;97367.70;;;16.50;55.36
56992;BME280;42885;49.754;18.636;2023-04-25T09:13:10;97365.74;;;15.84;53.07
56992;BME280;42885;49.754;18.636;2023-04-25T09:16:18;97363.97;;;15.89;53.05
56992;BME280;42885;49.754;18.636;2023-04-25T09:19:20;97367.49;;;16.26;55.25
56992;BME280;42885;49.754;18.636;2023-04-25T09:22:04;97366.75;;;15.87;54.06
56992;BME280;42885;49.754;18.636;2023-04-25T09:24:54;97366.39;;;15.96;55.19
56992;BME280;42885;49.754;18.636;2023-04-25T09:27:51;97367.12;;;16.02;54.29
56992;BME280;42885;49.754;18.636;2023-04-25T09:30:42;97369.56;;;16.00;53.35
56992;BME280;42885;49.754;18.636;2023-04-25T09:33:33;97366.92;;;16.00;53.01
56992;BME280;42885;49.754;18.636;2023-04-25T09:36:27;97368.36;;;16.30;52.15
56992;BME280;42885;49.754;18.636;2023-04-25T09:39:34;97368.86;;;16.12;51.19
56992;BME280;42885;49.754;18.636;2023-04-25T09:42:26;97363.47;;;16.35;51.85
56992;BME280;42885;49.754;18.636;2023-04-25T09:45:17;97371.52;;;16.16;51.71
56992;BME280;42885;49.754;18.636;2023-04-25T09:48:06;97369.14;;;16.08;51.30
56992;BME280;42885;49.754;18.636;2023-04-25T09:51:13;97369.03;;;16.32;50.48
56992;BME280;42885;49.754;18.636;2023-04-25T09:54:03;97367.64;;;16.42;50.74
56992;BME280;42885;49.754;18.636;2023-04-25T09:56:58;97370.08;;;16.21;50.51
56992;BME280;42885;49.754;18.636;2023-04-25T09:59:49;97372.17;;;16.32;51.13
56992;BME280;42885;49.754;18.636;2023-04-25T10:02:42;97370.80;;;16.09;51.04
56992;BME280;42885;49.754;18.636;2023-04-25T10:05:33;97363.95;;;15.99;50.09
56992;BME280;42885;49.754;18.636;2023-04-25T10:08:23;97369.88;;;16.33;49.34
56992;BME280;42885;49.754;18.636;2023-04-25T10:11:14;97369.94;;;16.41;49.22
56992;BME280;42885;49.754;18.636;2023-04-25T10:14:05;97365.19;;;16.27;48.96
56992;BME280;42885;49.754;18.636;2023-04-25T10:16:55;97363.41;;;16.49;49.44
56992;BME280;42885;49.754;18.636;2023-04-25T10:19:46;97359.44;;;16.72;47.12
56992;BME280;42885;49.754;18.636;2023-04-25T10:22:44;97359.20;;;17.10;46.54
56992;BME280;42885;49.754;18.636;2023-04-25T10:25:34;97359.41;;;16.94;46.29
56992;BME280;42885;49.754;18.636;2023-04-25T10:28:23;97355.63;;;16.70;47.30
56992;BME280;42885;49.754;18.636;2023-04-25T10:31:13;97358.66;;;16.79;47.87
56992;BME280;42885;49.754;18.636;2023-04-25T10:34:05;97360.20;;;16.86;47.49
56992;BME280;42885;49.754;18.636;2023-04-25T10:36:54;97355.81;;;16.73;46.53
56992;BME280;42885;49.754;18.636;2023-04-25T10:39:43;97363.00;;;16.40;46.29
56992;BME280;42885;49.754;18.636;2023-04-25T10:42:34;97363.80;;;16.59;47.65
56992;BME280;42885;49.754;18.636;2023-04-25T10:45:23;97361.24;;;16.49;46.48
56992;BME280;42885;49.754;18.636;2023-04-25T10:48:31;97353.24;;;16.59;46.09
56992;BME280;42885;49.754;18.636;2023-04-25T10:51:27;97358.06;;;16.63;45.52
56992;BME280;42885;49.754;18.636;2023-04-25T10:54:18;97354.30;;;16.70;45.74
56992;BME280;42885;49.754;18.636;2023-04-25T10:57:08;97348.32;;;16.90;45.60
56992;BME280;42885;49.754;18.636;2023-04-25T11:02:59;97362.99;;;16.04;46.12
56992;BME280;42885;49.754;18.636;2023-04-25T11:05:49;97362.95;;;16.36;46.51
56992;BME280;42885;49.754;18.636;2023-04-25T11:08:47;97354.70;;;16.35;47.25
56992;BME280;42885;49.754;18.636;2023-04-25T11:11:32;97358.30;;;15.98;47.10
56992;BME280;42885;49.754;18.636;2023-04-25T11:14:23;97352.01;;;16.31;46.17
56992;BME280;42885;49.754;18.636;2023-04-25T11:17:12;97351.33;;;16.69;46.26
56992;BME280;42885;49.754;18.636;2023-04-25T11:20:01;97359.91;;;16.67;46.06
56992;BME280;42885;49.754;18.636;2023-04-25T11:22:52;97357.48;;;16.33;47.10
56992;BME280;42885;49.754;18.636;2023-04-25T11:25:42;97359.05;;;16.40;45.67
56992;BME280;42885;49.754;18.636;2023-04-25T11:28:33;97357.92;;;16.24;45.89
56992;BME280;42885;49.754;18.636;2023-04-25T11:31:22;97359.77;;;16.28;46.45
56992;BME280;42885;49.754;18.636;2023-04-25T11:34:17;97360.66;;;16.37;45.98
56992;BME280;42885;49.754;18.636;2023-04-25T11:37:07;97363.56;;;15.93;46.23
56992;BME280;42885;49.754;18.636;2023-04-25T11:39:55;97354.46;;;15.92;48.00
56992;BME280;42885;49.754;18.636;2023-04-25T11:42:46;97353.05;;;15.69;48.84
56992;BME280;42885;49.754;18.636;2023-04-25T11:45:37;97353.92;;;16.02;48.06
56992;BME280;42885;49.754;18.636;2023-04-25T11:48:25;97349.59;;;16.15;47.55
56992;BME280;42885;49.754;18.636;2023-04-25T11:51:15;97349.59;;;16.15;47.55
56992;BME280;42885;49.754;18.636;2023-04-25T11:54:05;97348.89;;;16.13;47.87
56992;BME280;42885;49.754;18.636;2023-04-25T11:56:54;97353.84;;;16.30;47.63
56992;BME280;42885;49.754;18.636;2023-04-25T11:59:44;97352.01;;;16.31;48.09
56992;BME280;42885;49.754;18.636;2023-04-25T12:02:35;97359.27;;;16.51;47.85
56992;BME280;42885;49.754;18.636;2023-04-25T12:05:26;97360.12;;;16.33;48.12
56992;BME280;42885;49.754;18.636;2023-04-25T12:08:16;97357.85;;;16.83;48.31
56992;BME280;42885;49.754;18.636;2023-04-25T12:11:05;97361.56;;;16.46;47.55
56992;BME280;42885;49.754;18.636;2023-04-25T12:13:54;97358.06;;;16.41;47.82
56992;BME280;42885;49.754;18.636;2023-04-25T12:16:44;97349.42;;;16.57;47.81
56992;BME280;42885;49.754;18.636;2023-04-25T12:19:35;97347.09;;;16.81;48.01
56992;BME280;42885;49.754;18.636;2023-04-25T12:22:25;97341.42;;;16.93;46.87
56992;BME280;42885;49.754;18.636;2023-04-25T12:28:24;97341.21;;;17.52;45.16
56992;BME280;42885;49.754;18.636;2023-04-25T12:31:14;97340.95;;;17.80;44.94
56992;BME280;42885;49.754;18.636;2023-04-25T12:34:03;97342.38;;;18.18;44.44
56992;BME280;42885;49.754;18.636;2023-04-25T12:36:53;97335.59;;;18.40;43.16
56992;BME280;42885;49.754;18.636;2023-04-25T12:39:42;97341.38;;;18.60;43.15
56992;BME280;42885;49.754;18.636;2023-04-25T12:42:31;97342.55;;;18.20;43.50
56992;BME280;42885;49.754;18.636;2023-04-25T12:45:19;97336.56;;;18.84;42.81
56992;BME280;42885;49.754;18.636;2023-04-25T12:48:09;97338.55;;;19.47;41.05
56992;BME280;42885;49.754;18.636;2023-04-25T12:50:58;97333.64;;;19.99;40.57
56992;BME280;42885;49.754;18.636;2023-04-25T12:53:47;97330.35;;;19.61;39.77
56992;BME280;42885;49.754;18.636;2023-04-25T12:56:36;97328.66;;;20.43;39.33
56992;BME280;42885;49.754;18.636;2023-04-25T12:59:25;97326.19;;;20.22;40.07
56992;BME280;42885;49.754;18.636;2023-04-25T13:02:15;97317.97;;;21.45;37.63
56992;BME280;42885;49.754;18.636;2023-04-25T13:05:05;97320.36;;;21.14;37.90
56992;BME280;42885;49.754;18.636;2023-04-25T13:07:54;97314.78;;;21.76;37.39
56992;BME280;42885;49.754;18.636;2023-04-25T13:10:43;97310.67;;;22.06;37.95
56992;BME280;42885;49.754;18.636;2023-04-25T13:13:32;97313.39;;;21.13;37.73
56992;BME280;42885;49.754;18.636;2023-04-25T13:16:22;97317.41;;;19.58;38.97
56992;BME280;42885;49.754;18.636;2023-04-25T13:19:11;97313.66;;;20.88;39.70
56992;BME280;42885;49.754;18.636;2023-04-25T13:22:00;97316.24;;;19.92;39.31
56992;BME280;42885;49.754;18.636;2023-04-25T13:24:50;97317.84;;;18.78;41.02
56992;BME280;42885;49.754;18.636;2023-04-25T13:27:38;97315.27;;;19.58;41.45
56992;BME280;42885;49.754;18.636;2023-04-25T13:30:29;97313.45;;;21.35;36.50
56992;BME280;42885;49.754;18.636;2023-04-25T13:33:18;97312.03;;;21.69;37.50
56992;BME280;42885;49.754;18.636;2023-04-25T13:36:07;97306.47;;;23.50;33.39
56992;BME280;42885;49.754;18.636;2023-04-25T13:38:56;97305.20;;;23.71;32.47
56992;BME280;42885;49.754;18.636;2023-04-25T13:41:48;97321.62;;;21.75;34.64
56992;BME280;42885;49.754;18.636;2023-04-25T13:44:37;97319.01;;;20.99;35.70
56992;BME280;42885;49.754;18.636;2023-04-25T13:47:26;97316.56;;;19.62;37.98
56992;BME280;42885;49.754;18.636;2023-04-25T13:50:16;97319.13;;;18.94;39.36
56992;BME280;42885;49.754;18.636;2023-04-25T13:53:04;97315.81;;;18.88;40.35
56992;BME280;42885;49.754;18.636;2023-04-25T13:55:53;97321.11;;;19.05;39.62
56992;BME280;42885;49.754;18.636;2023-04-25T13:58:43;97323.63;;;19.74;38.30
56992;BME280;42885;49.754;18.636;2023-04-25T14:01:33;97318.09;;;20.39;37.36
56992;BME280;42885;49.754;18.636;2023-04-25T14:04:24;97317.41;;;22.74;36.40
56992;BME280;42885;49.754;18.636;2023-04-25T14:07:14;97311.30;;;22.63;34.23
56992;BME280;42885;49.754;18.636;2023-04-25T14:10:07;97308.41;;;22.14;34.45
56992;BME280;42885;49.754;18.636;2023-04-25T14:12:57;97313.14;;;21.04;35.94
56992;BME280;42885;49.754;18.636;2023-04-25T14:15:45;97311.23;;;21.65;37.24
56992;BME280;42885;49.754;18.636;2023-04-25T14:18:35;97310.51;;;19.80;38.89
56992;BME280;42885;49.754;18.636;2023-04-25T14:21:24;97312.38;;;18.79;41.91